Terminal Aerodrome Forecast
Issued by NWS

Home | Current Version | Previous Version | Text Only | Print | Product List | Glossary On
Versions: 1 2 3 4 5 6 7 8 9 10 11 12 13
000
FTUS46 KPDT 031720
TAFRDM
TAF
KRDM 031720Z 0318/0418 35005KT P6SM FEW250
     FM032100 34010G15KT P6SM SKC
     FM040300 32007KT P6SM FEW060 SCT200
     FM040800 VRB03KT P6SM SCT050=

USA.gov is the U.S. government's official web portal to all federal, state and local government web resources and services.